Time;durP1;ratioP1;P1;durP2;ratioP2;P2;SDS_P1;SDS_P2;PMS_P1;PMS_P2;Temp;Humidity;BMP_temperature;BMP_pressure;BME280_temperature;BME280_humidity;BME280_pressure;Samples;Min_cycle;Max_cycle;Signal;HPM_P1;HPM_P2
2024/01/06 00:02:18;;;;;;;;;;;;;;;10.59;51.73;99545.31;4964726;28;98613;-66
2024/01/06 00:04:44;;;;;;;;;;;;;;;10.60;51.83;99544.19;4944251;27;128473;-65
2024/01/06 00:07:10;;;;;;;;;;;;;;;10.57;51.87;99545.56;4948632;27;99171;-66
2024/01/06 00:09:36;;;;;;;;;;;;;;;10.56;51.85;99546.66;4948012;27;100666;-63
2024/01/06 00:12:02;;;;;;;;;;;;;;;10.55;51.60;99553.16;4949860;27;105439;-63
2024/01/06 00:14:28;;;;;;;;;;;;;;;10.55;51.79;99556.66;4959383;27;99442;-63
2024/01/06 00:16:54;;;;;;;;;;;;;;;10.52;51.55;99554.53;4946372;27;98191;-64
2024/01/06 00:19:20;;;;;;;;;;;;;;;10.52;51.85;99557.22;4979476;27;100256;-63
2024/01/06 00:21:46;;;;;;;;;;;;;;;10.52;51.81;99551.84;4948754;27;98306;-66
2024/01/06 00:24:12;;;;;;;;;;;;;;;10.51;51.56;99560.22;4961510;28;97913;-66
2024/01/06 00:26:38;;;;;;;;;;;;;;;10.49;51.96;99559.69;4978267;27;126212;-63
2024/01/06 00:29:04;;;;;;;;;;;;;;;10.47;51.87;99554.59;4953130;27;98254;-66
2024/01/06 00:31:30;;;;;;;;;;;;;;;10.47;51.98;99559.19;4961466;28;127574;-66
2024/01/06 00:33:56;;;;;;;;;;;;;;;10.45;51.77;99548.72;4945795;27;130446;-66
2024/01/06 00:36:22;;;;;;;;;;;;;;;10.44;51.89;99549.78;4978454;27;111262;-66
2024/01/06 00:38:48;;;;;;;;;;;;;;;10.43;51.42;99552.78;4961737;27;108897;-66
2024/01/06 00:41:15;;;;;;;;;;;;;;;10.42;51.46;99559.25;4949273;27;128249;-63
2024/01/06 00:43:42;;;;;;;;;;;;;;;10.40;51.47;99554.13;4967491;27;98998;-63
2024/01/06 00:46:09;;;;;;;;;;;;;;;10.40;51.49;99553.34;4996182;27;98084;-66
2024/01/06 00:48:34;;;;;;;;;;;;;;;10.37;51.43;99570.88;4980757;27;103061;-66
2024/01/06 00:51:00;;;;;;;;;;;;;;;10.37;51.33;99572.75;4945733;27;120986;-63
2024/01/06 00:53:27;;;;;;;;;;;;;;;10.35;51.66;99566.88;4950644;28;109720;-63
2024/01/06 00:55:53;;;;;;;;;;;;;;;10.35;51.80;99572.25;4962082;27;98115;-66
2024/01/06 00:58:19;;;;;;;;;;;;;;;10.32;51.67;99573.63;4955351;28;98054;-66
2024/01/06 01:00:44;;;;;;;;;;;;;;;10.32;51.49;99576.31;4977584;27;98442;-66
2024/01/06 01:03:11;;;;;;;;;;;;;;;10.30;51.31;99576.63;4964104;27;99968;-63
2024/01/06 01:05:37;;;;;;;;;;;;;;;10.29;51.70;99584.97;4950744;27;98243;-64
2024/01/06 01:08:03;;;;;;;;;;;;;;;10.28;51.85;99594.16;4962384;27;98211;-64
2024/01/06 01:10:29;;;;;;;;;;;;;;;10.26;51.83;99590.97;4963218;27;97996;-66
2024/01/06 01:12:55;;;;;;;;;;;;;;;10.26;51.77;99599.03;4953924;27;99523;-64
2024/01/06 01:15:22;;;;;;;;;;;;;;;10.25;51.52;99589.31;4960788;28;101126;-64
2024/01/06 01:17:48;;;;;;;;;;;;;;;10.23;51.70;99591.50;4966835;27;108418;-63
2024/01/06 01:20:14;;;;;;;;;;;;;;;10.23;51.48;99594.19;4945539;27;98358;-64
2024/01/06 01:22:40;;;;;;;;;;;;;;;10.21;51.66;99597.16;4949697;27;99350;-64
2024/01/06 01:25:08;;;;;;;;;;;;;;;10.20;51.73;99592.84;4952205;27;98380;-64
2024/01/06 01:27:34;;;;;;;;;;;;;;;10.19;51.64;99585.06;4969066;27;97938;-66
2024/01/06 01:30:00;;;;;;;;;;;;;;;10.18;51.60;99591.53;4951516;27;111779;-67
2024/01/06 01:32:26;;;;;;;;;;;;;;;10.17;51.51;99590.72;4949582;27;100024;-64
2024/01/06 01:34:52;;;;;;;;;;;;;;;10.16;51.47;99599.09;4948772;27;103853;-64
2024/01/06 01:37:18;;;;;;;;;;;;;;;10.16;52.05;99596.41;4947800;27;117682;-64
2024/01/06 01:39:44;;;;;;;;;;;;;;;10.14;51.84;99591.31;4984769;27;98337;-64
2024/01/06 01:42:10;;;;;;;;;;;;;;;10.14;51.68;99587.78;4964871;27;116473;-66
2024/01/06 01:44:37;;;;;;;;;;;;;;;10.12;51.88;99585.41;4950963;28;99351;-63
2024/01/06 01:47:04;;;;;;;;;;;;;;;10.10;51.66;99584.91;4951696;27;98127;-67
2024/01/06 01:49:30;;;;;;;;;;;;;;;10.08;51.53;99581.66;4966069;27;99437;-64
2024/01/06 01:51:56;;;;;;;;;;;;;;;10.08;51.65;99592.44;4961593;28;98540;-66
2024/01/06 01:54:23;;;;;;;;;;;;;;;10.08;51.65;99592.44;4946085;28;99834;-64
2024/01/06 01:56:49;;;;;;;;;;;;;;;10.07;51.32;99607.81;4951616;27;98011;-66
2024/01/06 01:59:16;;;;;;;;;;;;;;;10.05;51.79;99596.50;4966952;27;119643;-66
2024/01/06 02:01:42;;;;;;;;;;;;;;;10.04;51.71;99602.19;4965627;27;98003;-66
2024/01/06 02:04:12;;;;;;;;;;;;;;;10.02;51.66;99597.09;4966948;27;98661;-64
2024/01/06 02:06:37;;;;;;;;;;;;;;;10.02;51.34;99602.47;4968472;27;98269;-64
2024/01/06 02:09:03;;;;;;;;;;;;;;;10.01;51.80;99603.53;4982890;27;113814;-64
2024/01/06 02:11:29;;;;;;;;;;;;;;;10.01;51.33;99600.03;4947635;27;98244;-66
2024/01/06 02:13:56;;;;;;;;;;;;;;;9.99;51.68;99608.41;4949685;27;98544;-66
2024/01/06 02:16:22;;;;;;;;;;;;;;;10.00;51.32;99603.84;4951002;27;98119;-64
2024/01/06 02:18:49;;;;;;;;;;;;;;;9.98;51.69;99604.13;4979680;27;98188;-66
2024/01/06 02:21:15;;;;;;;;;;;;;;;9.97;51.91;99602.50;4962914;27;98061;-64
2024/01/06 02:23:41;;;;;;;;;;;;;;;9.97;51.52;99604.41;4948863;27;103132;-66
2024/01/06 02:26:07;;;;;;;;;;;;;;;9.95;51.68;99607.38;4982617;27;115203;-67
2024/01/06 02:28:33;;;;;;;;;;;;;;;9.95;51.83;99606.59;4966479;27;98375;-66
2024/01/06 02:30:59;;;;;;;;;;;;;;;9.94;51.69;99611.16;4944403;27;99320;-64
2024/01/06 02:33:25;;;;;;;;;;;;;;;9.93;51.68;99606.06;4942213;27;98633;-67
2024/01/06 02:35:51;;;;;;;;;;;;;;;9.92;51.90;99612.53;4948251;28;97963;-64
2024/01/06 02:38:17;;;;;;;;;;;;;;;9.91;51.80;99609.03;4963548;27;97996;-66
2024/01/06 02:40:43;;;;;;;;;;;;;;;9.90;51.78;99620.88;4949072;28;127551;-64
2024/01/06 02:43:10;;;;;;;;;;;;;;;9.90;51.58;99618.19;4948478;28;97809;-66
2024/01/06 02:45:36;;;;;;;;;;;;;;;9.88;51.28;99614.19;4982410;27;98367;-64
2024/01/06 02:48:02;;;;;;;;;;;;;;;9.88;51.27;99619.56;4949852;27;99866;-66
2024/01/06 02:50:28;;;;;;;;;;;;;;;9.86;51.55;99619.84;4957316;27;98951;-63
2024/01/06 02:52:54;;;;;;;;;;;;;;;9.84;51.48;99622.81;4946952;27;98423;-63
2024/01/06 02:55:20;;;;;;;;;;;;;;;9.82;51.81;99614.22;4946806;27;99430;-63
2024/01/06 02:57:47;;;;;;;;;;;;;;;9.82;51.93;99621.47;4964650;27;109488;-63
2024/01/06 03:00:13;;;;;;;;;;;;;;;9.82;51.57;99618.78;4944898;28;98110;-63
2024/01/06 03:02:42;;;;;;;;;;;;;;;9.80;51.36;99620.97;4947701;27;99854;-66
2024/01/06 03:05:09;;;;;;;;;;;;;;;9.80;51.18;99631.75;4946877;28;98021;-63
2024/01/06 03:07:35;;;;;;;;;;;;;;;9.78;51.20;99634.69;4944359;27;98237;-66
2024/01/06 03:10:01;;;;;;;;;;;;;;;9.78;51.73;99639.28;4943390;27;111126;-66
2024/01/06 03:12:27;;;;;;;;;;;;;;;9.76;51.61;99638.78;4960643;27;105554;-66
2024/01/06 03:14:53;;;;;;;;;;;;;;;9.75;51.76;99637.97;4957244;28;118878;-66
2024/01/06 03:17:19;;;;;;;;;;;;;;;9.74;51.62;99639.03;4955987;27;98750;-63
2024/01/06 03:19:45;;;;;;;;;;;;;;;9.74;51.21;99643.63;4945555;27;99495;-66
2024/01/06 03:22:12;;;;;;;;;;;;;;;9.72;51.45;99646.59;4957213;28;109270;-66
2024/01/06 03:24:39;;;;;;;;;;;;;;;9.71;51.08;99645.00;4942700;27;119561;-66
2024/01/06 03:27:05;;;;;;;;;;;;;;;9.70;51.63;99639.88;4942092;27;98363;-63
2024/01/06 03:29:31;;;;;;;;;;;;;;;9.69;51.54;99639.09;4961584;27;100194;-66
2024/01/06 03:31:58;;;;;;;;;;;;;;;9.69;51.17;99641.78;4942600;27;126584;-63
2024/01/06 03:34:25;;;;;;;;;;;;;;;9.67;51.93;99643.97;4956801;28;98115;-63
2024/01/06 03:36:51;;;;;;;;;;;;;;;9.67;51.30;99648.50;4943564;27;98135;-63
2024/01/06 03:39:17;;;;;;;;;;;;;;;9.67;51.36;99653.91;4941744;28;129159;-66
2024/01/06 03:41:43;;;;;;;;;;;;;;;9.65;51.30;99648.81;4959665;27;98447;-63
2024/01/06 03:44:09;;;;;;;;;;;;;;;9.63;51.23;99653.69;4953834;27;97926;-63
2024/01/06 03:46:35;;;;;;;;;;;;;;;9.63;51.90;99658.22;4945731;27;98475;-66
2024/01/06 03:49:01;;;;;;;;;;;;;;;9.63;51.38;99661.75;4946195;27;98827;-66
2024/01/06 03:51:28;;;;;;;;;;;;;;;9.61;51.19;99660.41;4963603;27;127613;-63
2024/01/06 03:53:54;;;;;;;;;;;;;;;9.61;51.47;99655.84;4960053;27;98053;-63
2024/01/06 03:56:20;;;;;;;;;;;;;;;9.59;51.18;99649.94;4947310;27;98250;-63
2024/01/06 03:58:46;;;;;;;;;;;;;;;9.58;52.02;99656.38;4946441;27;98098;-67
2024/01/06 04:01:12;;;;;;;;;;;;;;;9.57;51.70;99652.91;4957921;27;107653;-63
2024/01/06 04:03:42;;;;;;;;;;;;;;;9.57;52.02;99652.09;4948001;28;98120;-63
2024/01/06 04:06:08;;;;;;;;;;;;;;;9.55;51.35;99655.06;4961622;27;99296;-63
2024/01/06 04:08:35;;;;;;;;;;;;;;;9.56;51.35;99661.25;4960652;28;97805;-66
2024/01/06 04:11:02;;;;;;;;;;;;;;;9.55;51.72;99659.66;4955013;27;98209;-63
2024/01/06 04:13:28;;;;;;;;;;;;;;;9.53;51.48;99654.53;4955041;28;98086;-66
2024/01/06 04:15:54;;;;;;;;;;;;;;;9.53;51.56;99659.13;4942272;27;99300;-66
2024/01/06 04:18:20;;;;;;;;;;;;;;;9.51;51.38;99662.09;4948148;27;99425;-66
2024/01/06 04:20:46;;;;;;;;;;;;;;;9.51;51.20;99656.72;4956893;27;99594;-63
2024/01/06 04:23:12;;;;;;;;;;;;;;;9.51;51.56;99666.66;4942066;27;99496;-63
2024/01/06 04:25:38;;;;;;;;;;;;;;;9.49;51.22;99666.16;4948162;28;99897;-66
2024/01/06 04:28:04;;;;;;;;;;;;;;;9.49;51.38;99674.22;4962017;27;97903;-66
2024/01/06 04:30:30;;;;;;;;;;;;;;;9.49;51.21;99682.28;4964483;27;116328;-63
2024/01/06 04:32:57;;;;;;;;;;;;;;;9.47;51.35;99677.19;4942831;27;97915;-66
2024/01/06 04:35:23;;;;;;;;;;;;;;;9.47;51.17;99681.75;4941322;27;98375;-66
2024/01/06 04:37:50;;;;;;;;;;;;;;;9.46;51.78;99683.63;4958898;27;99144;-63
2024/01/06 04:40:16;;;;;;;;;;;;;;;9.45;51.13;99676.66;4954346;28;99720;-63
2024/01/06 04:42:42;;;;;;;;;;;;;;;9.45;51.39;99684.72;4958791;27;98052;-63
2024/01/06 04:45:09;;;;;;;;;;;;;;;9.44;51.13;99685.03;4948093;27;98083;-65
2024/01/06 04:47:35;;;;;;;;;;;;;;;9.44;50.97;99682.31;4962660;27;99231;-66
2024/01/06 04:50:01;;;;;;;;;;;;;;;9.44;51.49;99680.44;4947551;27;98343;-66
2024/01/06 04:52:27;;;;;;;;;;;;;;;9.44;51.53;99690.41;4963923;27;98405;-63
2024/01/06 04:54:54;;;;;;;;;;;;;;;9.43;51.40;99681.53;4946621;27;98707;-64
2024/01/06 04:57:20;;;;;;;;;;;;;;;9.43;51.50;99681.53;4964877;28;104317;-66
2024/01/06 04:59:47;;;;;;;;;;;;;;;9.42;51.91;99679.91;4949952;27;98786;-63
2024/01/06 05:02:12;;;;;;;;;;;;;;;9.43;51.56;99683.38;4963546;27;98016;-66
2024/01/06 05:04:39;;;;;;;;;;;;;;;9.41;51.36;99686.38;4962782;27;127009;-64
2024/01/06 05:07:05;;;;;;;;;;;;;;;9.41;50.95;99678.28;4950235;27;99052;-66
2024/01/06 05:09:31;;;;;;;;;;;;;;;9.42;51.07;99689.84;4976534;27;119560;-66
2024/01/06 05:11:57;;;;;;;;;;;;;;;9.41;51.31;99697.13;4963053;27;114149;-66
2024/01/06 05:14:23;;;;;;;;;;;;;;;9.41;51.11;99691.75;4946916;28;126079;-63
2024/01/06 05:16:49;;;;;;;;;;;;;;;9.40;51.61;99692.84;4951693;27;98295;-66
2024/01/06 05:19:19;;;;;;;;;;;;;;;9.41;51.36;99699.81;4965492;27;98088;-63
2024/01/06 05:21:46;;;;;;;;;;;;;;;9.40;51.20;99700.09;4966526;28;98275;-66
2024/01/06 05:24:12;;;;;;;;;;;;;;;9.40;51.53;99711.66;4959045;27;99874;-66
2024/01/06 05:26:38;;;;;;;;;;;;;;;9.38;51.26;99705.75;4945883;27;127784;-66
2024/01/06 05:29:04;;;;;;;;;;;;;;;9.39;51.71;99703.84;4947655;27;113607;-66
2024/01/06 05:31:31;;;;;;;;;;;;;;;9.38;51.50;99705.75;4965022;27;98063;-63
2024/01/06 05:33:58;;;;;;;;;;;;;;;9.38;51.53;99704.94;4962319;28;98042;-66
2024/01/06 05:36:25;;;;;;;;;;;;;;;9.37;51.68;99706.84;4944875;27;99868;-63
2024/01/06 05:38:51;;;;;;;;;;;;;;;9.38;50.87;99710.31;4946925;27;98981;-64
2024/01/06 05:41:17;;;;;;;;;;;;;;;9.38;51.91;99711.13;4963045;27;98324;-66
2024/01/06 05:43:43;;;;;;;;;;;;;;;9.37;51.51;99720.28;4947742;28;98421;-63
2024/01/06 05:46:10;;;;;;;;;;;;;;;9.37;51.55;99722.97;4963870;27;98652;-66
2024/01/06 05:48:36;;;;;;;;;;;;;;;9.38;51.47;99731.84;4949552;27;98219;-66
2024/01/06 05:51:05;;;;;;;;;;;;;;;9.38;51.19;99727.25;4945751;27;97831;-63
2024/01/06 05:53:32;;;;;;;;;;;;;;;9.37;51.19;99730.25;4946415;27;98151;-63
2024/01/06 05:55:58;;;;;;;;;;;;;;;9.37;51.92;99746.38;4949665;28;99875;-63
2024/01/06 05:58:24;;;;;;;;;;;;;;;9.34;51.34;99745.84;4946024;27;98028;-63
2024/01/06 06:00:50;;;;;;;;;;;;;;;9.32;51.23;99750.69;4945009;28;116689;-66
2024/01/06 06:03:16;;;;;;;;;;;;;;;9.30;51.57;99752.84;4943763;27;97938;-66
2024/01/06 06:05:43;;;;;;;;;;;;;;;9.30;51.38;99749.38;4949120;27;98016;-63
2024/01/06 06:08:09;;;;;;;;;;;;;;;9.29;51.79;99766.59;4980581;27;104264;-63
2024/01/06 06:10:51;;;;;;;;;;;;;;;9.28;51.39;99773.06;4946948;27;98243;-63
2024/01/06 06:13:17;;;;;;;;;;;;;;;9.26;51.62;99773.31;4967367;27;98219;-66
2024/01/06 06:15:43;;;;;;;;;;;;;;;9.25;50.74;99777.09;4955092;28;98332;-66
2024/01/06 06:18:11;;;;;;;;;;;;;;;9.24;51.18;99785.44;4964152;28;98243;-63
2024/01/06 06:20:38;;;;;;;;;;;;;;;9.24;51.66;99791.63;4948548;27;98816;-64
2024/01/06 06:23:04;;;;;;;;;;;;;;;9.24;51.21;99788.13;4949804;27;98122;-63
2024/01/06 06:25:30;;;;;;;;;;;;;;;9.24;51.40;99804.25;4934562;27;99142;-66
2024/01/06 06:27:56;;;;;;;;;;;;;;;9.24;51.47;99798.88;4934545;28;105386;-64
2024/01/06 06:30:22;;;;;;;;;;;;;;;9.23;51.41;99803.44;4927161;28;97825;-66
2024/01/06 06:32:48;;;;;;;;;;;;;;;9.23;51.54;99816.06;4942978;28;127200;-66
2024/01/06 06:35:14;;;;;;;;;;;;;;;9.24;51.18;99809.66;4929997;28;97848;-64
2024/01/06 06:37:40;;;;;;;;;;;;;;;9.25;51.90;99819.31;4945940;28;128280;-66
2024/01/06 06:40:06;;;;;;;;;;;;;;;9.25;51.17;99828.19;4960085;28;117515;-64
2024/01/06 06:42:32;;;;;;;;;;;;;;;9.27;51.03;99834.09;4932698;28;98350;-66
2024/01/06 06:44:58;;;;;;;;;;;;;;;9.29;51.32;99831.94;4945040;28;127606;-66
2024/01/06 06:47:24;;;;;;;;;;;;;;;9.32;51.59;99835.97;4923036;28;104959;-66
2024/01/06 06:49:51;;;;;;;;;;;;;;;9.32;51.14;99842.16;4943709;28;118643;-66
2024/01/06 06:52:16;;;;;;;;;;;;;;;9.36;51.47;99841.63;4925162;28;99956;-64
2024/01/06 06:54:42;;;;;;;;;;;;;;;9.37;51.40;99838.63;4936039;28;128733;-66
2024/01/06 06:57:08;;;;;;;;;;;;;;;9.40;51.32;99848.84;4938602;28;107675;-64
2024/01/06 06:59:34;;;;;;;;;;;;;;;9.43;50.99;99856.38;4922709;28;118307;-64
2024/01/06 07:02:00;;;;;;;;;;;;;;;9.45;51.82;99853.41;4925600;28;99913;-64
2024/01/06 07:04:27;;;;;;;;;;;;;;;9.49;50.67;99851.78;4923875;28;100051;-64
2024/01/06 07:06:53;;;;;;;;;;;;;;;9.50;51.10;99864.94;4939657;28;98210;-64
2024/01/06 07:09:19;;;;;;;;;;;;;;;9.53;51.40;99858.22;4924661;28;98595;-66
2024/01/06 07:11:45;;;;;;;;;;;;;;;9.54;51.42;99871.38;4935933;28;121518;-64
2024/01/06 07:14:11;;;;;;;;;;;;;;;9.57;51.20;99873.53;4923856;28;100258;-64
2024/01/06 07:16:36;;;;;;;;;;;;;;;9.60;51.24;99882.97;4936816;28;107362;-64
2024/01/06 07:19:02;;;;;;;;;;;;;;;9.62;51.50;99885.38;4937220;28;116612;-67
2024/01/06 07:21:28;;;;;;;;;;;;;;;9.63;51.04;99895.88;4953371;28;98701;-66
2024/01/06 07:23:55;;;;;;;;;;;;;;;9.66;51.31;99891.81;4935284;28;128698;-64
2024/01/06 07:26:21;;;;;;;;;;;;;;;9.68;50.89;99893.16;4940924;28;98208;-66
2024/01/06 07:28:47;;;;;;;;;;;;;;;9.70;51.24;99895.56;4940008;28;122023;-66
2024/01/06 07:31:14;;;;;;;;;;;;;;;9.72;51.25;99901.47;4925521;28;98646;-65
2024/01/06 07:33:40;;;;;;;;;;;;;;;9.75;50.76;99907.13;4938837;28;98296;-64
2024/01/06 07:36:06;;;;;;;;;;;;;;;9.77;51.03;99904.94;4941395;28;103831;-66
2024/01/06 07:38:32;;;;;;;;;;;;;;;9.79;51.15;99904.69;4923323;28;98127;-64
2024/01/06 07:40:58;;;;;;;;;;;;;;;9.82;50.81;99898.72;4940280;28;98114;-67
2024/01/06 07:43:24;;;;;;;;;;;;;;;9.84;50.76;99918.91;4938935;28;123728;-64
2024/01/06 07:45:50;;;;;;;;;;;;;;;9.88;51.29;99918.38;4952854;28;99620;-64
2024/01/06 07:48:17;;;;;;;;;;;;;;;9.89;51.34;99922.69;4924184;28;98080;-64
2024/01/06 07:50:43;;;;;;;;;;;;;;;9.91;50.78;99925.91;4924972;28;99974;-66
2024/01/06 07:53:09;;;;;;;;;;;;;;;9.94;50.88;99930.72;4942917;28;98194;-67
2024/01/06 07:55:35;;;;;;;;;;;;;;;9.96;51.46;99923.19;4938335;28;99668;-64
2024/01/06 07:58:01;;;;;;;;;;;;;;;9.99;51.03;99938.81;4956374;28;118828;-64
2024/01/06 08:00:27;;;;;;;;;;;;;;;9.99;51.00;99928.84;4919857;28;119073;-66
2024/01/06 08:02:53;;;;;;;;;;;;;;;10.01;50.83;99940.13;4921748;28;129178;-64
2024/01/06 08:05:19;;;;;;;;;;;;;;;10.03;51.41;99943.34;4936426;28;98202;-63
2024/01/06 08:07:45;;;;;;;;;;;;;;;10.05;51.12;99938.47;4922273;28;98229;-66
2024/01/06 08:10:11;;;;;;;;;;;;;;;10.06;51.37;99942.81;4934754;28;128210;-66
2024/01/06 08:12:37;;;;;;;;;;;;;;;10.07;50.77;99932.84;4923133;28;99674;-66
2024/01/06 08:15:04;;;;;;;;;;;;;;;10.06;50.98;99942.81;4924661;28;98450;-66
2024/01/06 08:17:30;;;;;;;;;;;;;;;10.08;51.12;99951.41;4925312;28;98038;-66
2024/01/06 08:19:57;;;;;;;;;;;;;;;10.09;50.91;99941.44;4921880;28;100199;-63
2024/01/06 08:22:24;;;;;;;;;;;;;;;10.11;50.63;99950.06;4922669;28;97911;-66
2024/01/06 08:24:50;;;;;;;;;;;;;;;10.13;50.73;99945.19;4925099;28;98324;-66
2024/01/06 08:27:16;;;;;;;;;;;;;;;10.16;51.28;99954.59;4926162;28;100161;-66
2024/01/06 08:29:44;;;;;;;;;;;;;;;10.18;50.96;99952.41;4924562;28;98236;-64
2024/01/06 08:32:11;;;;;;;;;;;;;;;10.19;50.67;99952.16;4923543;28;98000;-67
2024/01/06 08:34:38;;;;;;;;;;;;;;;10.24;50.83;99960.22;4923808;28;98181;-66
2024/01/06 08:37:04;;;;;;;;;;;;;;;10.34;51.01;99964.78;4924784;28;98262;-66
2024/01/06 08:39:30;;;;;;;;;;;;;;;10.44;51.21;99972.78;4925317;28;98449;-64
2024/01/06 08:41:56;;;;;;;;;;;;;;;10.54;50.73;99977.34;4924858;28;131222;-66
2024/01/06 08:44:22;;;;;;;;;;;;;;;10.62;51.11;99976.75;4924215;28;104968;-64
2024/01/06 08:46:48;;;;;;;;;;;;;;;10.66;50.95;99975.09;4924860;28;98383;-64
2024/01/06 08:49:14;;;;;;;;;;;;;;;10.71;50.84;99975.06;4924117;28;98054;-64
2024/01/06 08:51:40;;;;;;;;;;;;;;;10.74;50.97;99981.81;4925141;28;108635;-67
2024/01/06 08:54:06;;;;;;;;;;;;;;;10.75;50.89;99984.19;4923839;28;98594;-64
2024/01/06 08:56:35;;;;;;;;;;;;;;;10.77;50.72;99983.94;4942196;28;98661;-64
2024/01/06 08:59:02;;;;;;;;;;;;;;;10.78;50.82;99990.94;4923743;28;98523;-67
2024/01/06 09:01:28;;;;;;;;;;;;;;;10.78;50.90;99988.25;4937931;28;110631;-66
2024/01/06 09:03:54;;;;;;;;;;;;;;;10.82;51.13;99992.00;4921703;28;117085;-66
2024/01/06 09:06:19;;;;;;;;;;;;;;;10.87;50.83;99993.84;4931392;28;98507;-64
2024/01/06 09:08:45;;;;;;;;;;;;;;;10.89;51.04;99997.88;4920903;28;99641;-66
2024/01/06 09:11:12;;;;;;;;;;;;;;;10.92;50.82;99997.28;4925883;28;98405;-64
2024/01/06 09:13:40;;;;;;;;;;;;;;;10.95;50.81;99998.63;4926144;28;98422;-64
2024/01/06 09:16:06;;;;;;;;;;;;;;;10.98;51.14;100012.38;4933449;28;98612;-63
2024/01/06 09:18:32;;;;;;;;;;;;;;;11.02;51.11;100016.09;4919094;28;100280;-67
2024/01/06 09:20:58;;;;;;;;;;;;;;;11.07;50.88;100018.75;4917824;28;100848;-66
2024/01/06 09:23:25;;;;;;;;;;;;;;;11.09;50.94;100015.81;4921452;28;98271;-66
2024/01/06 09:25:52;;;;;;;;;;;;;;;11.12;50.93;100017.94;4925250;28;98490;-64
2024/01/06 09:28:18;;;;;;;;;;;;;;;11.16;51.08;100019.00;4921172;28;99651;-66
2024/01/06 09:30:44;;;;;;;;;;;;;;;11.18;51.00;100021.38;4938886;28;98287;-66
2024/01/06 09:33:10;;;;;;;;;;;;;;;11.19;50.94;100029.19;4940287;28;127464;-63
2024/01/06 09:35:37;;;;;;;;;;;;;;;11.18;50.73;100027.59;4941917;28;98569;-66
2024/01/06 09:38:03;;;;;;;;;;;;;;;11.18;51.16;100026.78;4927975;28;111883;-66
2024/01/06 09:40:30;;;;;;;;;;;;;;;11.17;50.80;100036.78;4926200;28;99756;-66
2024/01/06 09:42:56;;;;;;;;;;;;;;;11.15;51.03;100041.63;4926057;28;99393;-66
2024/01/06 09:45:22;;;;;;;;;;;;;;;11.13;50.85;100043.03;4923360;28;100964;-64
2024/01/06 09:47:49;;;;;;;;;;;;;;;11.12;50.93;100044.91;4927330;28;98457;-63
2024/01/06 09:50:19;;;;;;;;;;;;;;;11.11;51.28;100048.69;4941423;28;98406;-63
2024/01/06 09:52:52;;;;;;;;;;;;;;;11.10;51.13;100043.56;4954832;28;97848;-66
2024/01/06 09:55:17;;;;;;;;;;;;;;;11.10;51.21;100044.38;4940280;28;98568;-63
2024/01/06 09:57:45;;;;;;;;;;;;;;;11.10;51.08;100048.97;4940110;28;127769;-66
2024/01/06 10:00:11;;;;;;;;;;;;;;;11.08;51.09;100049.22;4945534;28;98261;-64
2024/01/06 10:02:37;;;;;;;;;;;;;;;11.10;51.16;100048.97;4926695;28;98360;-66
2024/01/06 10:05:04;;;;;;;;;;;;;;;11.09;51.05;100041.97;4935452;28;117836;-64
2024/01/06 10:07:29;;;;;;;;;;;;;;;11.10;51.00;100049.78;4924860;28;98332;-66
2024/01/06 10:09:56;;;;;;;;;;;;;;;11.11;51.08;100048.69;4922723;28;102106;-63
2024/01/06 10:12:25;;;;;;;;;;;;;;;11.12;51.04;100046.78;4925015;28;99571;-64
2024/01/06 10:14:52;;;;;;;;;;;;;;;11.12;51.15;100044.09;4943838;28;98743;-66
2024/01/06 10:17:19;;;;;;;;;;;;;;;11.11;50.96;100051.38;4943709;28;98284;-66
2024/01/06 10:19:48;;;;;;;;;;;;;;;11.12;51.10;100039.53;4925975;28;98420;-64
2024/01/06 10:22:14;;;;;;;;;;;;;;;11.12;51.11;100036.81;4942472;28;98520;-63
2024/01/06 10:24:41;;;;;;;;;;;;;;;11.14;51.10;100034.63;4954193;28;98126;-63
2024/01/06 10:27:08;;;;;;;;;;;;;;;11.16;51.13;100034.34;4944048;28;99795;-63
2024/01/06 10:29:35;;;;;;;;;;;;;;;11.17;50.87;100034.06;4925833;28;98229;-63
2024/01/06 10:32:01;;;;;;;;;;;;;;;11.15;51.01;100027.34;4939503;28;98232;-67
2024/01/06 10:34:27;;;;;;;;;;;;;;;11.14;50.96;100023.84;4939690;28;111346;-64
2024/01/06 10:36:53;;;;;;;;;;;;;;;11.12;51.07;100026.03;4922223;28;99788;-63
2024/01/06 10:39:20;;;;;;;;;;;;;;;11.10;50.83;100030.88;4932066;28;102218;-64
2024/01/06 10:41:49;;;;;;;;;;;;;;;11.09;51.13;100029.28;4941459;28;98102;-67
2024/01/06 10:44:15;;;;;;;;;;;;;;;11.09;50.88;100028.47;4943001;28;103062;-63
2024/01/06 10:46:42;;;;;;;;;;;;;;;11.07;50.86;100040.34;4941122;28;99095;-66
2024/01/06 10:49:12;;;;;;;;;;;;;;;11.06;51.04;100036.03;4925877;28;100153;-66
2024/01/06 10:51:39;;;;;;;;;;;;;;;11.05;50.97;100037.13;4921813;28;99369;-63
2024/01/06 10:54:06;;;;;;;;;;;;;;;11.07;51.18;100043.03;4928231;28;98897;-63
2024/01/06 10:56:41;;;;;;;;;;;;;;;11.05;50.95;100044.41;4944285;28;100556;-63
2024/01/06 10:59:07;;;;;;;;;;;;;;;11.02;50.96;100039.59;4937912;28;108835;-66
2024/01/06 11:01:33;;;;;;;;;;;;;;;10.99;50.99;100042.84;4922980;28;99471;-64
2024/01/06 11:03:59;;;;;;;;;;;;;;;10.96;51.19;100038.00;4934444;28;100382;-64
2024/01/06 11:06:25;;;;;;;;;;;;;;;10.96;50.97;100043.38;4922301;28;98703;-66
2024/01/06 11:09:05;;;;;;;;;;;;;;;10.94;51.38;100043.66;4939517;28;98986;-64
2024/01/06 11:11:31;;;;;;;;;;;;;;;10.91;51.11;100049.63;4927695;28;98097;-66
2024/01/06 11:14:17;;;;;;;;;;;;;;;10.90;51.15;100049.91;4934241;28;99232;-66
2024/01/06 11:16:44;;;;;;;;;;;;;;;10.87;51.23;100045.06;4958141;28;98208;-64
2024/01/06 11:19:35;;;;;;;;;;;;;;;10.86;51.26;100048.84;4924459;28;99202;-64
2024/01/06 11:22:31;;;;;;;;;;;;;;;10.82;51.22;100051.31;4958083;28;98267;-64
2024/01/06 11:25:07;;;;;;;;;;;;;;;10.79;51.32;100049.16;4953385;28;99323;-66
2024/01/06 11:27:33;;;;;;;;;;;;;;;10.78;51.31;100052.94;4936171;28;100029;-64
2024/01/06 11:30:00;;;;;;;;;;;;;;;10.76;51.25;100052.41;4936112;28;98212;-66
2024/01/06 11:32:38;;;;;;;;;;;;;;;10.76;51.11;100058.59;4919022;28;99081;-64
2024/01/06 11:35:09;;;;;;;;;;;;;;;10.77;51.15;100062.94;4938331;28;98254;-66
2024/01/06 11:37:41;;;;;;;;;;;;;;;10.76;51.32;100060.50;4936394;28;99855;-67
2024/01/06 11:40:26;;;;;;;;;;;;;;;10.77;51.25;100060.22;4957606;28;99466;-67
2024/01/06 11:43:19;;;;;;;;;;;;;;;10.77;51.25;100065.63;4921550;28;98292;-64
2024/01/06 11:45:45;;;;;;;;;;;;;;;10.78;51.17;100071.81;4923825;28;98372;-64
2024/01/06 11:48:12;;;;;;;;;;;;;;;10.78;51.07;100069.91;4937931;28;128154;-66
2024/01/06 11:50:39;;;;;;;;;;;;;;;10.79;50.90;100068.03;4941396;28;98272;-64
2024/01/06 11:53:07;;;;;;;;;;;;;;;10.80;51.17;100075.03;4921421;28;99633;-64
2024/01/06 11:55:34;;;;;;;;;;;;;;;10.80;51.32;100067.75;4957092;28;98229;-63
2024/01/06 11:58:05;;;;;;;;;;;;;;;10.80;51.01;100066.94;4939436;28;98350;-64
2024/01/06 12:00:36;;;;;;;;;;;;;;;10.81;51.28;100069.38;4926070;28;99935;-64
2024/01/06 12:03:02;;;;;;;;;;;;;;;10.80;51.05;100073.13;4937568;28;98101;-64
2024/01/06 12:05:28;;;;;;;;;;;;;;;10.80;51.28;100070.44;4936359;28;98406;-64
2024/01/06 12:07:56;;;;;;;;;;;;;;;10.80;51.14;100073.13;4926402;28;100176;-66
2024/01/06 12:10:22;;;;;;;;;;;;;;;10.81;51.28;100069.38;4938433;28;99389;-66
2024/01/06 12:13:02;;;;;;;;;;;;;;;10.82;51.14;100076.38;4926710;28;115169;-63
2024/01/06 12:15:29;;;;;;;;;;;;;;;10.84;51.20;100077.97;4944182;28;98062;-64
2024/01/06 12:17:56;;;;;;;;;;;;;;;10.83;51.20;100082.56;4938608;28;98310;-66
2024/01/06 12:20:23;;;;;;;;;;;;;;;10.83;51.11;100079.88;4937475;28;99926;-66
2024/01/06 12:22:52;;;;;;;;;;;;;;;10.84;51.14;100072.59;4921782;28;99120;-64
2024/01/06 12:25:18;;;;;;;;;;;;;;;10.82;51.19;100081.75;4923125;28;98210;-64
2024/01/06 12:27:44;;;;;;;;;;;;;;;10.83;51.22;100085.25;4921331;28;98204;-66
2024/01/06 12:30:18;;;;;;;;;;;;;;;10.82;51.00;100079.06;4917147;28;118196;-66
2024/01/06 12:32:45;;;;;;;;;;;;;;;10.79;51.28;100082.31;4932881;28;99098;-64
2024/01/06 12:35:11;;;;;;;;;;;;;;;10.79;51.05;100085.00;4920321;28;98864;-64
2024/01/06 12:37:38;;;;;;;;;;;;;;;10.78;51.26;100083.41;4937251;28;98342;-66
2024/01/06 12:40:05;;;;;;;;;;;;;;;10.78;51.40;100091.50;4956113;28;100478;-66
2024/01/06 12:42:31;;;;;;;;;;;;;;;10.77;51.34;100086.38;4924661;28;97952;-66
2024/01/06 12:44:58;;;;;;;;;;;;;;;10.77;51.16;100094.47;4930768;28;119962;-64